createdAt,value
2024-04-25T00:00:22.429Z,15.85
2024-04-25T00:02:53.112Z,15.05
2024-04-25T00:05:22.712Z,14.02
2024-04-25T00:07:52.362Z,15.23
2024-04-25T00:10:21.781Z,17.55
2024-04-25T00:12:53.852Z,15.95
2024-04-25T00:15:23.250Z,17.88
2024-04-25T00:17:53.017Z,18.77
2024-04-25T00:20:22.523Z,14.63
2024-04-25T00:22:51.929Z,16.95
2024-04-25T00:25:21.366Z,14.02
2024-04-25T00:27:55.212Z,21.80
2024-04-25T00:30:24.602Z,18.13
2024-04-25T00:32:54.894Z,15.18
2024-04-25T00:35:24.455Z,14.18
2024-04-25T00:37:53.867Z,18.52
2024-04-25T00:40:23.270Z,13.00
2024-04-25T00:42:55.364Z,18.13
2024-04-25T00:45:24.798Z,16.95
2024-04-25T00:47:55.087Z,16.95
2024-04-25T00:50:25.438Z,17.15
2024-04-25T00:52:54.900Z,19.75
2024-04-25T00:55:24.318Z,19.20
2024-04-25T00:57:57.619Z,17.13
2024-04-25T01:00:27.812Z,19.90
2024-04-25T01:05:27.603Z,18.55
2024-04-25T01:07:57.240Z,18.45
2024-04-25T01:10:26.663Z,17.25
2024-04-25T01:12:58.719Z,20.00
2024-04-25T01:15:28.183Z,14.43
2024-04-25T01:17:57.691Z,16.40
2024-04-25T01:20:27.171Z,20.98
2024-04-25T01:22:58.054Z,18.00
2024-04-25T01:25:30.606Z,22.77
2024-04-25T01:28:00.392Z,18.38
2024-04-25T01:30:30.492Z,21.63
2024-04-25T01:35:31.912Z,24.13
2024-04-25T01:38:01.702Z,22.60
2024-04-25T01:40:33.736Z,24.00
2024-04-25T01:43:03.173Z,21.42
2024-04-25T01:45:32.572Z,19.80
2024-04-25T01:48:02.172Z,22.17
2024-04-25T01:50:31.715Z,21.83
2024-04-25T01:53:01.114Z,19.40
2024-04-25T01:55:33.163Z,21.63
2024-04-25T01:58:02.551Z,18.27
2024-04-25T02:00:32.102Z,24.17
2024-04-25T02:03:01.587Z,22.02
2024-04-25T02:05:31.063Z,16.95
2024-04-25T02:08:00.442Z,19.15
2024-04-25T02:10:29.882Z,25.10
2024-04-25T02:13:01.972Z,19.67
2024-04-25T02:15:31.383Z,20.45
2024-04-25T02:18:00.962Z,20.98
2024-04-25T02:20:46.046Z,19.88
2024-04-25T02:23:35.626Z,20.88
2024-04-25T02:26:05.828Z,18.75
2024-04-25T02:31:07.303Z,18.17
2024-04-25T02:33:36.764Z,19.75
2024-04-25T02:36:06.382Z,19.35
2024-04-25T02:38:35.822Z,18.60
2024-04-25T02:41:05.268Z,19.83
2024-04-25T02:43:32.093Z,21.27
2024-04-25T02:46:01.491Z,19.63
2024-04-25T02:48:30.991Z,20.35
2024-04-25T02:51:00.508Z,17.40
2024-04-25T02:53:27.402Z,20.20
2024-04-25T02:55:56.842Z,21.25
2024-04-25T02:58:23.606Z,19.50
2024-04-25T03:00:53.052Z,22.17
2024-04-25T03:03:19.955Z,20.35
2024-04-25T03:05:52.865Z,19.65
2024-04-25T03:08:19.734Z,22.15
2024-04-25T03:10:49.215Z,18.45
2024-04-25T03:13:15.992Z,18.40
2024-04-25T03:15:45.373Z,19.52
2024-04-25T03:18:12.445Z,19.67
2024-04-25T03:20:42.130Z,20.00
2024-04-25T03:23:11.673Z,24.38
2024-04-25T03:25:41.100Z,22.98
2024-04-25T03:28:08.650Z,24.48
2024-04-25T03:30:38.060Z,20.27
2024-04-25T03:33:05.078Z,22.88
2024-04-25T03:35:34.549Z,27.30
2024-04-25T03:38:05.965Z,26.55
2024-04-25T03:40:39.057Z,21.85
2024-04-25T03:43:08.584Z,19.05
2024-04-25T03:45:38.161Z,14.75
2024-04-25T03:48:08.254Z,24.00
2024-04-25T03:53:07.603Z,19.88
2024-04-25T03:55:40.304Z,16.30
2024-04-25T03:58:09.710Z,18.58
2024-04-25T04:00:39.147Z,25.13
2024-04-25T04:03:09.436Z,21.60
2024-04-25T04:05:38.989Z,24.13
2024-04-25T04:08:09.220Z,27.63
2024-04-25T04:10:42.757Z,23.27
2024-04-25T04:13:12.161Z,23.42
2024-04-25T04:15:41.547Z,23.08
2024-04-25T04:18:11.065Z,22.75
2024-04-25T04:20:40.523Z,20.30
2024-04-25T04:23:10.378Z,18.88
2024-04-25T04:25:42.427Z,17.70
2024-04-25T04:28:15.448Z,19.50
2024-04-25T04:30:45.206Z,17.20
2024-04-25T04:33:14.772Z,13.55
2024-04-25T04:35:44.308Z,22.65
2024-04-25T04:38:13.727Z,18.88
2024-04-25T04:40:45.754Z,19.25
2024-04-25T04:43:15.134Z,21.15
2024-04-25T04:45:45.124Z,19.23
2024-04-25T04:48:22.924Z,23.02
2024-04-25T04:50:56.459Z,23.40
2024-04-25T04:53:25.938Z,21.17
2024-04-25T04:55:57.968Z,22.08
2024-04-25T04:58:27.358Z,21.38
2024-04-25T05:00:56.829Z,23.98
2024-04-25T05:03:26.273Z,17.90
2024-04-25T05:05:55.673Z,20.10
2024-04-25T05:08:25.157Z,18.95
2024-04-25T05:10:54.613Z,17.25
2024-04-25T05:13:26.678Z,19.13
2024-04-25T05:15:56.164Z,16.95
2024-04-25T05:18:25.635Z,21.52
2024-04-25T05:20:55.067Z,23.23
2024-04-25T05:23:24.489Z,16.40
2024-04-25T05:25:54.079Z,16.85
2024-04-25T05:28:26.331Z,17.13
2024-04-25T05:30:55.740Z,19.33
2024-04-25T05:33:25.265Z,14.70
2024-04-25T05:35:56.090Z,16.75
2024-04-25T05:38:25.554Z,21.00
2024-04-25T05:40:54.953Z,19.13
2024-04-25T05:43:27.392Z,14.77
2024-04-25T05:45:56.787Z,18.48
2024-04-25T05:48:27.763Z,19.33
2024-04-25T05:50:57.356Z,16.17
2024-04-25T05:53:26.796Z,14.40
2024-04-25T05:55:56.279Z,15.93
2024-04-25T05:58:28.315Z,15.70
2024-04-25T06:00:57.768Z,13.75
2024-04-25T06:03:27.240Z,14.77
2024-04-25T06:05:56.898Z,15.00
2024-04-25T06:08:26.297Z,11.73
2024-04-25T06:10:55.852Z,13.20
2024-04-25T06:13:27.939Z,15.55
2024-04-25T06:15:57.324Z,14.70
2024-04-25T06:18:26.803Z,18.63
2024-04-25T06:20:56.283Z,15.70
2024-04-25T06:23:25.747Z,15.10
2024-04-25T06:25:55.203Z,13.15
2024-04-25T06:28:24.599Z,13.82
2024-04-25T06:31:00.952Z,16.00
2024-04-25T06:33:30.498Z,14.82
2024-04-25T06:35:59.997Z,16.55
2024-04-25T06:38:29.456Z,15.30
2024-04-25T06:40:58.868Z,16.20
2024-04-25T06:43:30.055Z,16.90
2024-04-25T06:46:03.892Z,19.38
2024-04-25T06:48:33.586Z,16.08
2024-04-25T06:51:05.592Z,17.40
2024-04-25T06:53:35.088Z,14.40
2024-04-25T06:56:04.487Z,16.60
2024-04-25T06:58:34.095Z,11.13
2024-04-25T07:01:06.795Z,15.70
2024-04-25T07:03:36.538Z,16.23
2024-04-25T07:06:07.719Z,17.65
2024-04-25T07:08:37.149Z,16.63
2024-04-25T07:11:06.792Z,18.13
2024-04-25T07:13:36.190Z,21.23
2024-04-25T07:16:10.843Z,16.38
2024-04-25T07:18:40.299Z,17.98
2024-04-25T07:21:09.840Z,20.63
2024-04-25T07:23:39.287Z,21.70
2024-04-25T07:26:08.916Z,15.45
2024-04-25T07:28:38.351Z,17.02
2024-04-25T07:31:10.444Z,14.10
2024-04-25T07:33:39.952Z,15.75
2024-04-25T07:36:10.032Z,15.05
2024-04-25T07:38:39.586Z,13.82
2024-04-25T07:41:09.059Z,11.65
2024-04-25T07:43:38.462Z,16.75
2024-04-25T07:46:13.197Z,15.95
2024-04-25T07:48:45.515Z,13.63
2024-04-25T07:51:15.185Z,12.93
2024-04-25T07:53:46.320Z,15.95
2024-04-25T07:56:15.857Z,12.85
2024-04-25T07:58:45.357Z,13.10
2024-04-25T08:01:20.433Z,8.45
2024-04-25T08:03:49.855Z,9.63
2024-04-25T08:06:19.626Z,8.18
2024-04-25T08:08:49.390Z,7.78
2024-04-25T08:11:19.154Z,10.00
2024-04-25T08:13:49.473Z,8.65
2024-04-25T08:16:21.601Z,6.22
2024-04-25T08:18:51.336Z,8.20
2024-04-25T08:21:20.770Z,10.15
2024-04-25T08:23:50.368Z,6.88
2024-04-25T08:26:20.082Z,4.65
2024-04-25T08:28:49.564Z,5.75
2024-04-25T08:31:21.955Z,7.30
2024-04-25T08:33:51.764Z,4.70
2024-04-25T08:36:21.378Z,5.47
2024-04-25T08:38:51.323Z,6.03
2024-04-25T08:41:21.711Z,4.63
2024-04-25T08:43:51.386Z,7.68
2024-04-25T08:46:28.238Z,5.35
2024-04-25T08:48:59.256Z,4.07
2024-04-25T08:51:30.065Z,4.70
2024-04-25T08:54:02.841Z,3.90
2024-04-25T08:56:32.529Z,3.95
2024-04-25T08:59:02.344Z,3.90
2024-04-25T09:01:36.174Z,3.47
2024-04-25T09:04:06.978Z,3.78
2024-04-25T09:06:36.441Z,7.20
2024-04-25T09:09:06.019Z,4.03
2024-04-25T09:11:35.460Z,3.80
2024-04-25T09:14:04.955Z,3.38
2024-04-25T09:16:37.978Z,3.65
2024-04-25T09:19:08.629Z,2.70
2024-04-25T09:21:38.753Z,2.72
2024-04-25T09:24:09.696Z,3.00
2024-04-25T09:26:39.140Z,3.05
2024-04-25T09:29:08.627Z,2.17
2024-04-25T09:31:41.000Z,3.40
2024-04-25T09:34:10.825Z,3.50
2024-04-25T09:36:40.853Z,2.35
2024-04-25T09:39:10.335Z,3.50
2024-04-25T09:41:40.692Z,2.88
2024-04-25T09:44:11.022Z,3.65
2024-04-25T09:46:43.631Z,4.13
2024-04-25T09:49:13.281Z,4.25
2024-04-25T09:51:48.552Z,3.30
2024-04-25T09:54:20.079Z,4.43
2024-04-25T09:56:52.367Z,3.97
2024-04-25T09:59:25.297Z,3.42
2024-04-25T10:01:58.929Z,5.10
2024-04-25T10:04:34.502Z,15.65
2024-04-25T10:07:05.864Z,3.92
2024-04-25T10:09:35.523Z,3.65
2024-04-25T10:12:07.891Z,3.33
2024-04-25T10:14:37.401Z,3.25
2024-04-25T10:17:09.476Z,9.82
2024-04-25T10:19:40.135Z,25.65
2024-04-25T10:22:09.718Z,5.60
2024-04-25T10:24:46.136Z,6.15
2024-04-25T10:27:15.922Z,3.08
2024-04-25T10:29:51.658Z,4.82
2024-04-25T10:32:23.934Z,5.10
2024-04-25T10:34:54.158Z,5.85
2024-04-25T10:39:53.405Z,5.68
2024-04-25T10:42:23.999Z,4.22
2024-04-25T10:44:57.495Z,5.13
2024-04-25T10:47:30.315Z,5.60
2024-04-25T10:49:59.931Z,5.78
2024-04-25T10:52:29.385Z,5.10
2024-04-25T10:54:58.924Z,4.68
2024-04-25T10:57:31.200Z,5.60
2024-04-25T11:00:01.659Z,4.55
2024-04-25T11:02:40.976Z,5.70
2024-04-25T11:05:10.939Z,3.90
2024-04-25T11:07:40.818Z,3.75
2024-04-25T11:10:10.620Z,5.22
2024-04-25T11:12:40.226Z,4.40
2024-04-25T11:15:19.642Z,5.32
2024-04-25T11:18:00.593Z,6.20
2024-04-25T11:20:36.624Z,3.38
2024-04-25T11:23:15.730Z,4.93
2024-04-25T11:25:49.899Z,6.55
2024-04-25T11:28:21.700Z,3.28
2024-04-25T11:30:51.189Z,3.65
2024-04-25T11:33:25.924Z,3.40
2024-04-25T11:35:55.804Z,3.47
2024-04-25T11:38:26.023Z,3.45
2024-04-25T11:43:25.807Z,3.30
2024-04-25T11:45:55.352Z,2.92
2024-04-25T11:48:28.715Z,4.13
2024-04-25T11:51:00.801Z,3.33
2024-04-25T11:53:31.813Z,2.88
2024-04-25T11:56:01.252Z,2.65
2024-04-25T11:58:30.732Z,2.67
2024-04-25T12:01:00.210Z,2.85
2024-04-25T12:03:32.272Z,2.15
2024-04-25T12:06:02.750Z,2.63
2024-04-25T12:08:32.523Z,3.13
2024-04-25T12:11:01.997Z,1.70
2024-04-25T12:13:31.365Z,4.03
2024-04-25T12:16:00.769Z,2.10
2024-04-25T12:18:33.454Z,1.40
2024-04-25T12:21:03.821Z,3.42
2024-04-25T12:23:35.191Z,2.17
2024-04-25T12:26:04.961Z,1.65
2024-04-25T12:28:35.659Z,2.75
2024-04-25T12:31:08.203Z,1.48
2024-04-25T12:33:41.607Z,2.30
2024-04-25T12:36:11.395Z,1.35
2024-04-25T12:38:40.854Z,2.33
2024-04-25T12:41:10.267Z,1.83
2024-04-25T12:43:39.641Z,2.40
2024-04-25T12:46:06.436Z,2.97
2024-04-25T12:48:36.008Z,2.40
2024-04-25T12:51:08.314Z,2.20
2024-04-25T12:53:37.720Z,2.40
2024-04-25T12:56:07.686Z,2.78
2024-04-25T12:58:41.848Z,1.88
2024-04-25T13:01:11.542Z,2.28
2024-04-25T13:03:41.048Z,2.25
2024-04-25T13:06:13.124Z,2.67
2024-04-25T13:08:44.765Z,3.63
2024-04-25T13:11:16.073Z,2.53
2024-04-25T13:13:45.568Z,1.98
2024-04-25T13:16:17.205Z,1.83
2024-04-25T13:18:47.052Z,2.15
2024-04-25T13:21:20.137Z,3.13
2024-04-25T13:23:49.607Z,4.15
2024-04-25T13:26:21.246Z,3.70
2024-04-25T13:28:50.710Z,3.45
2024-04-25T13:31:20.158Z,5.00
2024-04-25T13:33:49.682Z,3.33
2024-04-25T13:36:21.883Z,4.20
2024-04-25T13:38:51.555Z,3.55
2024-04-25T13:41:21.061Z,4.25
2024-04-25T13:43:50.536Z,4.35
2024-04-25T13:46:19.938Z,5.32
2024-04-25T13:48:49.377Z,4.63
2024-04-25T13:51:19.026Z,4.90
2024-04-25T13:53:48.557Z,4.55
2024-04-25T13:56:18.069Z,4.30
2024-04-25T13:58:48.016Z,5.65
2024-04-25T14:01:17.548Z,4.82
2024-04-25T14:03:47.172Z,4.45
2024-04-25T14:06:16.649Z,4.85
2024-04-25T14:08:48.693Z,4.50
2024-04-25T14:11:19.847Z,8.13
2024-04-25T14:13:53.318Z,5.35
2024-04-25T14:16:22.790Z,6.32
2024-04-25T14:18:55.546Z,4.97
2024-04-25T14:21:26.082Z,5.25
2024-04-25T14:23:58.201Z,5.40
2024-04-25T14:26:42.725Z,8.55
2024-04-25T14:29:12.140Z,6.22
2024-04-25T14:31:41.559Z,6.20
2024-04-25T14:34:11.167Z,6.40
2024-04-25T14:36:40.670Z,5.95
2024-04-25T14:39:12.828Z,4.93
2024-04-25T14:41:42.393Z,6.93
2024-04-25T14:44:11.860Z,6.57
2024-04-25T14:46:41.285Z,5.97
2024-04-25T14:49:10.689Z,6.18
2024-04-25T14:51:40.178Z,7.05
2024-04-25T14:54:12.246Z,5.22
2024-04-25T14:56:41.805Z,7.00
2024-04-25T14:59:11.521Z,7.45
2024-04-25T15:01:41.059Z,7.20
2024-04-25T15:04:10.780Z,8.93
2024-04-25T15:06:42.123Z,7.05
2024-04-25T15:09:16.020Z,5.72
2024-04-25T15:11:50.187Z,8.02
2024-04-25T15:14:19.769Z,8.80
2024-04-25T15:16:49.281Z,6.97
2024-04-25T15:19:18.756Z,7.90
2024-04-25T15:21:48.344Z,6.40
2024-04-25T15:24:20.497Z,6.70
2024-04-25T15:26:50.025Z,7.75
2024-04-25T15:29:19.547Z,7.85
2024-04-25T15:31:49.123Z,7.40
2024-04-25T15:34:18.617Z,10.18
2024-04-25T15:36:48.115Z,10.93
2024-04-25T15:39:20.291Z,7.93
2024-04-25T15:41:50.096Z,7.80
2024-04-25T15:44:19.590Z,7.57
2024-04-25T15:46:49.082Z,8.45
2024-04-25T15:49:18.769Z,8.55
2024-04-25T15:51:48.251Z,9.55
2024-04-25T15:54:20.520Z,8.15
2024-04-25T15:56:51.075Z,8.18
2024-04-25T15:59:20.738Z,7.90
2024-04-25T16:01:50.219Z,8.73
2024-04-25T16:04:19.944Z,9.52
2024-04-25T16:06:50.537Z,7.47
2024-04-25T16:09:22.608Z,9.75
2024-04-25T16:11:54.595Z,8.65
2024-04-25T16:14:24.052Z,11.40
2024-04-25T16:16:56.238Z,9.25
2024-04-25T16:19:30.078Z,9.52
2024-04-25T16:22:01.185Z,9.20
2024-04-25T16:24:33.431Z,9.18
2024-04-25T16:27:04.756Z,9.05
2024-04-25T16:29:35.828Z,9.25
2024-04-25T16:32:05.276Z,9.77
2024-04-25T16:34:34.675Z,12.02
2024-04-25T16:37:05.823Z,11.57
2024-04-25T16:39:38.571Z,9.85
2024-04-25T16:42:08.286Z,12.45
2024-04-25T16:44:37.857Z,9.13
2024-04-25T16:47:07.575Z,11.25
2024-04-25T16:49:37.088Z,9.82
2024-04-25T16:52:09.073Z,8.63
2024-04-25T16:54:42.136Z,8.23
2024-04-25T16:57:11.537Z,10.95
2024-04-25T16:59:41.124Z,13.05
2024-04-25T17:02:10.692Z,9.93
2024-04-25T17:04:40.953Z,8.65
2024-04-25T17:07:10.948Z,8.73
2024-04-25T17:09:44.392Z,9.77
2024-04-25T17:12:14.193Z,10.07
2024-04-25T17:14:46.935Z,9.13
2024-04-25T17:17:16.622Z,9.20
2024-04-25T17:19:46.118Z,8.65
2024-04-25T17:22:15.547Z,14.05
2024-04-25T17:24:47.565Z,11.98
2024-04-25T17:27:17.004Z,9.77
2024-04-25T17:29:46.440Z,12.43
2024-04-25T17:32:15.976Z,12.30
2024-04-25T17:34:46.739Z,12.80
2024-04-25T17:37:16.208Z,11.45
2024-04-25T17:39:48.270Z,11.48
2024-04-25T17:42:17.704Z,11.63
2024-04-25T17:44:49.375Z,9.63
2024-04-25T17:47:20.336Z,13.80
2024-04-25T17:49:49.942Z,10.80
2024-04-25T17:52:19.386Z,10.98
2024-04-25T17:54:51.462Z,9.15
2024-04-25T17:57:20.883Z,10.13
2024-04-25T17:59:50.359Z,13.30
2024-04-25T18:02:19.820Z,9.35
2024-04-25T18:04:49.426Z,13.10
2024-04-25T18:07:21.056Z,13.68
2024-04-25T18:09:53.101Z,12.45
2024-04-25T18:12:22.548Z,15.68
2024-04-25T18:14:52.922Z,11.80
2024-04-25T18:17:25.521Z,14.57
2024-04-25T18:19:56.867Z,13.25
2024-04-25T18:22:26.370Z,13.50
2024-04-25T18:24:58.403Z,15.57
2024-04-25T18:27:30.104Z,12.98
2024-04-25T18:29:59.503Z,13.13
2024-04-25T18:32:31.755Z,13.73
2024-04-25T18:35:01.468Z,13.52
2024-04-25T18:37:31.078Z,12.00
2024-04-25T18:40:03.564Z,18.00
2024-04-25T18:42:32.963Z,13.07
2024-04-25T18:45:02.411Z,12.52
2024-04-25T18:47:31.957Z,18.98
2024-04-25T18:49:58.914Z,17.45
2024-04-25T18:52:28.328Z,14.55
2024-04-25T18:54:57.744Z,15.85
2024-04-25T18:57:30.050Z,14.48
2024-04-25T19:00:04.404Z,14.18
2024-04-25T19:02:33.882Z,14.07
2024-04-25T19:05:03.312Z,15.50
2024-04-25T19:07:32.717Z,13.38
2024-04-25T19:10:02.185Z,19.98
2024-04-25T19:12:37.795Z,15.25
2024-04-25T19:15:08.143Z,12.52
2024-04-25T19:17:37.578Z,18.00
2024-04-25T19:20:09.560Z,14.90
2024-04-25T19:22:39.040Z,16.10
2024-04-25T19:25:08.863Z,14.48
2024-04-25T19:27:40.948Z,14.25
2024-04-25T19:30:14.014Z,20.45
2024-04-25T19:32:43.608Z,13.85
2024-04-25T19:35:15.206Z,16.48
2024-04-25T19:37:44.590Z,13.23
2024-04-25T19:40:14.052Z,15.02
2024-04-25T19:42:46.117Z,11.23
2024-04-25T19:45:15.610Z,16.42
2024-04-25T19:47:45.372Z,19.17
2024-04-25T19:50:16.438Z,16.17
2024-04-25T19:52:46.322Z,14.50
2024-04-25T19:55:15.900Z,12.77
2024-04-25T19:57:48.724Z,17.15
2024-04-25T20:00:18.802Z,16.23
2024-04-25T20:02:48.309Z,14.23
2024-04-25T20:05:18.063Z,12.82
2024-04-25T20:07:47.624Z,14.20
2024-04-25T20:10:17.072Z,14.70
2024-04-25T20:12:49.480Z,17.65
2024-04-25T20:15:19.041Z,13.52
2024-04-25T20:18:12.503Z,15.57
2024-04-25T20:20:57.727Z,15.18
2024-04-25T20:23:27.194Z,12.45
2024-04-25T20:25:56.623Z,17.10
2024-04-25T20:28:28.970Z,14.40
2024-04-25T20:30:58.362Z,14.90
2024-04-25T20:33:27.827Z,17.65
2024-04-25T20:35:57.339Z,16.58
2024-04-25T20:38:26.791Z,16.15
2024-04-25T20:40:56.194Z,10.77
2024-04-25T20:43:28.303Z,14.88
2024-04-25T20:45:57.778Z,15.45
2024-04-25T20:48:28.560Z,16.55
2024-04-25T20:50:58.088Z,16.08
2024-04-25T20:53:27.542Z,12.75
2024-04-25T20:55:57.986Z,11.40
2024-04-25T20:58:30.297Z,15.27
2024-04-25T21:01:00.064Z,16.48
2024-04-25T21:03:31.028Z,17.60
2024-04-25T21:06:01.119Z,13.45
2024-04-25T21:08:32.915Z,16.42
2024-04-25T21:11:02.659Z,13.43
2024-04-25T21:13:34.787Z,17.67
2024-04-25T21:16:04.194Z,15.13
2024-04-25T21:18:34.312Z,10.85
2024-04-25T21:23:36.318Z,19.77
2024-04-25T21:26:05.770Z,14.40
2024-04-25T21:28:37.808Z,13.38
2024-04-25T21:31:07.386Z,14.57
2024-04-25T21:33:36.837Z,11.93
2024-04-25T21:36:06.704Z,19.85
2024-04-25T21:38:36.221Z,14.85
2024-04-25T21:41:05.628Z,15.93
2024-04-25T21:43:39.169Z,19.42
2024-04-25T21:46:10.304Z,13.23
2024-04-25T21:48:39.815Z,14.75
2024-04-25T21:51:06.695Z,14.88
2024-04-25T21:53:36.466Z,14.25
2024-04-25T21:56:05.874Z,17.70
2024-04-25T21:58:37.919Z,13.40
2024-04-25T22:01:08.094Z,16.58
2024-04-25T22:03:38.643Z,18.67
2024-04-25T22:06:08.519Z,27.92
2024-04-25T22:08:37.904Z,19.23
2024-04-25T22:11:07.450Z,14.40
2024-04-25T22:13:39.490Z,14.27
2024-04-25T22:16:09.722Z,23.08
2024-04-25T22:21:07.057Z,15.43
2024-04-25T22:23:36.510Z,18.45
2024-04-25T22:26:05.974Z,17.63
2024-04-25T22:28:35.457Z,12.70
2024-04-25T22:31:07.680Z,15.55
2024-04-25T22:33:37.137Z,17.25
2024-04-25T22:36:09.846Z,17.83
2024-04-25T22:38:39.436Z,16.95
2024-04-25T22:41:08.818Z,18.67
2024-04-25T22:43:38.209Z,11.45
2024-04-25T22:46:10.305Z,18.92
2024-04-25T22:48:39.823Z,15.95
2024-04-25T22:51:09.512Z,15.45
2024-04-25T22:53:38.979Z,16.00
2024-04-25T22:56:09.991Z,16.50
2024-04-25T22:58:39.468Z,16.20
2024-04-25T23:01:11.674Z,19.75
2024-04-25T23:03:41.114Z,16.35
2024-04-25T23:06:11.406Z,14.27
2024-04-25T23:08:38.218Z,13.60
2024-04-25T23:11:07.832Z,18.15
2024-04-25T23:13:37.292Z,13.05
2024-04-25T23:16:06.971Z,16.77
2024-04-25T23:18:39.237Z,16.35
2024-04-25T23:21:09.193Z,18.20
2024-04-25T23:23:39.718Z,14.82
2024-04-25T23:26:09.271Z,14.40
2024-04-25T23:28:38.670Z,11.23
2024-04-25T23:31:08.050Z,19.48
2024-04-25T23:33:40.526Z,16.33
2024-04-25T23:36:10.781Z,17.10
2024-04-25T23:41:09.356Z,15.10
2024-04-25T23:43:39.955Z,20.30
2024-04-25T23:46:09.538Z,15.48
2024-04-25T23:48:41.891Z,15.18
2024-04-25T23:51:11.418Z,17.75
2024-04-25T23:53:41.214Z,21.88
2024-04-25T23:56:12.320Z,19.40
2024-04-25T23:58:40.015Z,23.48
